Time;durP1;ratioP1;P1;durP2;ratioP2;P2;SDS_P1;SDS_P2;PMS_P1;PMS_P2;Temp;Humidity;BMP_temperature;BMP_pressure;BME280_temperature;BME280_humidity;BME280_pressure;Samples;Min_cycle;Max_cycle;Signal;HPM_P1;HPM_P2
2024/04/04 00:04:19;;;;;;;7.70;4.12;;;;;;;6.94;100.00;100175.57;5110651;56;1138689;-82
2024/04/04 00:09:25;;;;;;;6.92;2.77;;;;;;;6.92;100.00;100178.30;5117680;56;1138627;-81
2024/04/04 00:14:31;;;;;;;7.00;4.53;;;;;;;6.89;100.00;100182.92;5133141;56;1138810;-81
2024/04/04 00:19:37;;;;;;;7.07;3.53;;;;;;;6.85;100.00;100172.27;5084064;56;1136554;-81
2024/04/04 00:24:43;;;;;;;8.27;3.83;;;;;;;6.80;100.00;100175.20;5069471;56;1138809;-81
2024/04/04 00:29:50;;;;;;;5.92;3.80;;;;;;;6.83;100.00;100163.64;5138394;56;1139056;-81
2024/04/04 00:34:56;;;;;;;6.35;3.77;;;;;;;6.86;100.00;100162.96;5098123;56;1138631;-81
2024/04/04 00:40:03;;;;;;;6.80;4.43;;;;;;;6.85;100.00;100169.63;5056266;56;1138657;-81
2024/04/04 00:45:10;;;;;;;7.97;4.33;;;;;;;6.82;100.00;100161.95;5112237;56;1138757;-80
2024/04/04 00:50:18;;;;;;;5.73;3.83;;;;;;;6.81;100.00;100145.34;5158616;56;1138956;-81
2024/04/04 00:55:23;;;;;;;7.47;5.13;;;;;;;6.79;100.00;100135.87;5137705;56;1138906;-82
2024/04/04 01:00:29;;;;;;;6.57;4.10;;;;;;;6.68;100.00;100133.51;5132074;56;1138853;-82
2024/04/04 01:05:35;;;;;;;11.00;4.97;;;;;;;6.64;100.00;100132.50;5147151;56;1136753;-81
2024/04/04 01:10:41;;;;;;;16.07;5.23;;;;;;;6.60;100.00;100136.27;5126713;56;1140848;-81
2024/04/04 01:15:47;;;;;;;8.48;4.42;;;;;;;6.56;100.00;100127.77;5126581;56;1140752;-82
2024/04/04 01:20:53;;;;;;;9.17;4.57;;;;;;;6.61;100.00;100127.44;5071693;56;1138603;-81
2024/04/04 01:25:59;;;;;;;9.60;5.40;;;;;;;6.63;100.00;100126.39;5040681;56;1138618;-80
2024/04/04 01:31:05;;;;;;;8.53;5.20;;;;;;;6.62;100.00;100122.08;5056772;56;1136557;-82
2024/04/04 01:36:10;;;;;;;9.35;5.60;;;;;;;6.62;100.00;100123.87;5059574;57;1136719;-80
2024/04/04 01:41:16;;;;;;;7.83;4.80;;;;;;;6.59;100.00;100117.50;5038277;57;1143393;-82
2024/04/04 01:46:22;;;;;;;15.45;5.60;;;;;;;6.57;100.00;100111.03;5039810;57;1138771;-81
2024/04/04 01:51:28;;;;;;;9.17;5.73;;;;;;;6.58;100.00;100111.41;5062118;57;1145218;-81
2024/04/04 01:56:34;;;;;;;7.80;5.58;;;;;;;6.57;100.00;100117.59;5040938;57;1136912;-81
2024/04/04 02:01:39;;;;;;;8.60;5.30;;;;;;;6.53;100.00;100108.73;5115123;56;1138875;-81
2024/04/04 02:06:45;;;;;;;8.18;5.37;;;;;;;6.53;100.00;100106.11;5138554;56;1138599;-82
2024/04/04 02:11:51;;;;;;;10.03;5.20;;;;;;;6.57;100.00;100104.97;5158568;56;1138560;-82
2024/04/04 02:16:56;;;;;;;8.17;5.17;;;;;;;6.60;100.00;100099.48;5128156;56;1140648;-82
2024/04/04 02:22:02;;;;;;;7.90;5.37;;;;;;;6.59;100.00;100092.54;5054130;56;1136459;-81
2024/04/04 02:27:08;;;;;;;9.73;5.40;;;;;;;6.50;100.00;100081.36;5127211;56;1138519;-81
2024/04/04 02:32:14;;;;;;;9.77;4.63;;;;;;;6.47;100.00;100080.24;5137905;56;1138758;-81
2024/04/04 02:37:19;;;;;;;7.53;4.95;;;;;;;6.43;100.00;100078.29;5137936;56;1138583;-82
2024/04/04 02:42:25;;;;;;;9.63;5.97;;;;;;;6.44;100.00;100077.81;5157791;56;1139031;-82
2024/04/04 02:47:31;;;;;;;6.78;4.85;;;;;;;6.44;100.00;100058.95;5138069;56;1138564;-81
2024/04/04 02:52:37;;;;;;;10.70;6.60;;;;;;;6.43;100.00;100059.06;5136973;56;1138817;-81
2024/04/04 02:57:42;;;;;;;10.77;5.07;;;;;;;6.50;100.00;100064.28;5137058;56;1140978;-82
2024/04/04 03:02:48;;;;;;;14.27;5.93;;;;;;;6.50;100.00;100064.28;5155402;56;1141056;-81
2024/04/04 03:07:54;;;;;;;8.63;6.00;;;;;;;6.56;100.00;100058.62;5125734;56;1140947;-82
2024/04/04 03:13:00;;;;;;;8.67;5.83;;;;;;;6.55;100.00;100054.31;5126180;56;1138865;-81
2024/04/04 03:18:06;;;;;;;7.87;5.20;;;;;;;6.53;100.00;100053.09;5146596;56;1138739;-82
2024/04/04 03:23:11;;;;;;;7.97;5.57;;;;;;;6.52;100.00;100047.47;4923639;58;1138753;-81
2024/04/04 03:28:17;;;;;;;6.73;5.00;;;;;;;6.55;100.00;100047.27;5050803;57;1138736;-81
2024/04/04 03:33:23;;;;;;;10.63;5.53;;;;;;;6.56;100.00;100052.89;5105494;57;1138653;-81
2024/04/04 03:38:28;;;;;;;16.13;6.77;;;;;;;6.56;100.00;100055.99;5049000;57;1141005;-82
2024/04/04 03:43:35;;;;;;;9.93;5.80;;;;;;;6.59;100.00;100053.13;5048777;57;1140960;-81
2024/04/04 03:48:40;;;;;;;8.35;4.90;;;;;;;6.60;100.00;100053.50;5071666;57;1138744;-82
2024/04/04 03:53:46;;;;;;;10.03;6.70;;;;;;;6.60;100.00;100053.03;5060086;57;1138997;-81
2024/04/04 03:58:52;;;;;;;11.57;5.83;;;;;;;6.65;100.00;100047.47;5143280;56;1141237;-82
2024/04/04 04:03:58;;;;;;;9.08;5.92;;;;;;;6.72;100.00;100046.58;5057356;56;1141025;-81
2024/04/04 04:09:04;;;;;;;9.97;5.57;;;;;;;6.78;100.00;100044.83;5157689;56;1139170;-81
2024/04/04 04:14:09;;;;;;;11.77;7.43;;;;;;;6.87;100.00;100044.20;5137433;56;1138938;-81
2024/04/04 04:19:18;;;;;;;12.77;7.00;;;;;;;6.89;100.00;100048.38;5136057;56;1140825;-80
2024/04/04 04:24:24;;;;;;;11.70;7.20;;;;;;;6.88;100.00;100048.48;5152580;56;1140889;-82
2024/04/04 04:29:30;;;;;;;8.50;6.10;;;;;;;6.90;100.00;100046.59;5151300;56;1141059;-81
2024/04/04 04:34:36;;;;;;;10.43;5.42;;;;;;;6.89;100.00;100048.38;5131250;56;1138731;-82
2024/04/04 04:39:43;;;;;;;10.13;6.13;;;;;;;6.88;100.00;100040.59;5138014;56;1140953;-82
2024/04/04 04:44:48;;;;;;;9.27;6.40;;;;;;;6.90;100.00;100042.17;5156324;56;1140981;-80
2024/04/04 04:49:54;;;;;;;19.73;6.80;;;;;;;6.98;100.00;100035.92;5136839;56;1138488;-80
2024/04/04 04:55:00;;;;;;;8.67;6.50;;;;;;;7.03;100.00;100031.16;5058109;56;1140851;-80
2024/04/04 05:00:12;;;;;;;17.57;6.77;;;;;;;7.03;100.00;100039.05;5162202;56;1138722;-81
2024/04/04 05:05:16;;;;;;;8.60;6.30;;;;;;;7.01;100.00;100037.03;5072409;56;1140812;-79
2024/04/04 05:10:22;;;;;;;8.47;6.77;;;;;;;7.03;100.00;100032.48;5092054;56;1139003;-80
2024/04/04 05:15:28;;;;;;;13.13;7.05;;;;;;;7.05;100.00;100033.69;5087284;56;1140019;-81
2024/04/04 05:20:34;;;;;;;12.10;7.30;;;;;;;7.07;100.00;100033.11;5055187;56;1140524;-81
2024/04/04 05:25:40;;;;;;;13.33;8.07;;;;;;;7.10;100.00;100032.05;5072125;56;1140726;-80
2024/04/04 05:30:46;;;;;;;13.73;8.80;;;;;;;7.13;100.00;100032.69;5077842;56;1140778;-78
2024/04/04 05:35:53;;;;;;;9.80;7.70;;;;;;;7.19;100.00;100029.59;5092424;56;1140959;-79
2024/04/04 05:41:06;;;;;;;16.17;8.50;;;;;;;7.26;100.00;100033.96;5092058;56;1138661;-81
2024/04/04 05:46:12;;;;;;;12.43;8.70;;;;;;;7.34;100.00;100034.23;5075487;56;1140975;-79
2024/04/04 05:51:17;;;;;;;12.77;8.07;;;;;;;7.42;100.00;100026.65;5107782;56;1140915;-79
2024/04/04 05:56:23;;;;;;;16.40;9.20;;;;;;;7.49;100.00;100030.50;5113664;56;1141134;-80
2024/04/04 06:01:32;;;;;;;13.33;8.57;;;;;;;7.54;100.00;100038.91;4993475;57;1140978;-80
2024/04/04 06:06:37;;;;;;;13.22;9.00;;;;;;;7.64;100.00;100033.80;5079796;56;1141175;-81
2024/04/04 06:11:43;;;;;;;13.23;8.93;;;;;;;7.74;100.00;100038.78;5052608;56;1140748;-81
2024/04/04 06:16:49;;;;;;;12.67;9.73;;;;;;;7.83;100.00;100035.45;5042833;56;1140870;-81
2024/04/04 06:21:56;;;;;;;14.00;10.03;;;;;;;7.93;100.00;100031.20;5112369;56;1140672;-81
2024/04/04 06:27:03;;;;;;;21.27;10.87;;;;;;;8.04;100.00;100032.55;5056071;56;1143005;-80
2024/04/04 06:32:09;;;;;;;17.40;9.57;;;;;;;8.19;100.00;100039.78;5069200;56;1142896;-81
2024/04/04 06:37:16;;;;;;;11.90;8.97;;;;;;;8.30;100.00;100041.12;5117955;56;1140815;-82
2024/04/04 06:42:22;;;;;;;15.73;10.70;;;;;;;8.40;100.00;100032.90;5103444;56;1141411;-83
2024/04/04 06:47:28;;;;;;;17.57;11.93;;;;;;;8.57;100.00;100036.05;5105433;56;1143067;-83
2024/04/04 06:52:34;;;;;;;23.80;14.50;;;;;;;8.81;100.00;100040.75;4927139;58;1143377;-80
2024/04/04 06:57:39;;;;;;;30.93;14.07;;;;;;;9.03;100.00;100038.09;5043382;56;1142862;-80
2024/04/04 07:02:45;;;;;;;21.02;11.60;;;;;;;9.18;100.00;100041.32;5050718;56;1142902;-81
2024/04/04 07:07:51;;;;;;;15.73;9.53;;;;;;;9.28;100.00;100042.28;5105373;56;1142750;-82
2024/04/04 07:12:57;;;;;;;17.37;9.67;;;;;;;9.37;100.00;100034.94;5098298;56;1140951;-77
2024/04/04 07:18:09;;;;;;;15.33;9.70;;;;;;;9.43;100.00;100039.73;5124009;56;1141045;-83
2024/04/04 07:23:13;;;;;;;28.70;20.63;;;;;;;9.52;100.00;100034.19;5097695;56;1141023;-87
2024/04/04 07:28:19;;;;;;;15.90;9.75;;;;;;;9.60;100.00;100037.53;5152323;56;1142858;-82
2024/04/04 07:33:25;;;;;;;13.73;9.40;;;;;;;9.67;100.00;100046.14;5134852;56;1140944;-83
2024/04/04 07:38:30;;;;;;;16.40;8.28;;;;;;;9.75;100.00;100049.50;5112670;57;1140638;-83
2024/04/04 07:43:36;;;;;;;16.80;10.60;;;;;;;9.80;100.00;100055.22;5013818;57;1140800;-83
2024/04/04 07:48:42;;;;;;;23.40;10.70;;;;;;;9.83;100.00;100053.66;5067904;56;1143056;-82
2024/04/04 07:53:51;;;;;;;13.58;7.55;;;;;;;9.91;100.00;100055.68;5060911;56;1142972;-84
2024/04/04 07:58:56;;;;;;;11.40;8.20;;;;;;;9.97;100.00;100055.16;5099509;56;1140728;-84
2024/04/04 08:04:02;;;;;;;14.03;9.63;;;;;;;10.09;100.00;100052.81;5096666;56;1140741;-83
2024/04/04 08:09:09;;;;;;;13.73;8.27;;;;;;;10.26;100.00;100050.97;5060770;56;1142771;-84
2024/04/04 08:14:16;;;;;;;18.40;11.07;;;;;;;10.40;100.00;100049.80;5156408;56;1143135;-83
2024/04/04 08:19:21;;;;;;;23.00;15.83;;;;;;;10.56;100.00;100046.22;5116972;56;1145299;-83
2024/04/04 08:24:27;;;;;;;17.27;10.47;;;;;;;10.73;100.00;100039.01;5132463;56;1145452;-84
2024/04/04 08:29:33;;;;;;;9.10;7.63;;;;;;;10.85;100.00;100047.69;5111771;56;1145292;-81
2024/04/04 08:34:39;;;;;;;12.70;7.07;;;;;;;10.96;100.00;100060.85;5072956;56;1140910;-82
2024/04/04 08:39:45;;;;;;;8.97;6.87;;;;;;;11.02;100.00;100052.84;5101012;56;1142795;-82
2024/04/04 08:44:55;;;;;;;15.72;10.32;;;;;;;11.06;100.00;100066.17;5058596;56;1150090;-82
2024/04/04 08:50:01;;;;;;;18.12;10.48;;;;;;;11.04;100.00;100056.20;5077486;56;1145128;-83
2024/04/04 08:55:08;;;;;;;13.25;8.28;;;;;;;11.07;100.00;100051.97;5075730;56;1144800;-83
2024/04/04 09:00:17;;;;;;;15.47;6.90;;;;;;;11.11;100.00;100066.14;5094962;56;1142683;-85
2024/04/04 09:05:22;;;;;;;10.50;6.03;;;;;;;11.17;100.00;100054.16;4938414;58;1142835;-84
2024/04/04 09:10:28;;;;;;;9.73;5.43;;;;;;;11.28;100.00;100055.41;5132206;56;1142647;-84
2024/04/04 09:15:37;;;;;;;7.93;4.00;;;;;;;11.37;100.00;100061.20;5088713;56;1140896;-83
2024/04/04 09:20:43;;;;;;;10.13;4.17;;;;;;;11.39;100.00;100052.64;5071553;56;1141096;-84
2024/04/04 09:25:50;;;;;;;5.63;3.77;;;;;;;11.46;100.00;100059.05;4970169;58;1143077;-83
2024/04/04 09:31:01;;;;;;;6.12;3.70;;;;;;;11.77;100.00;100054.53;5074609;56;1140952;-85
2024/04/04 09:36:08;;;;;;;4.80;3.75;;;;;;;11.98;100.00;100043.33;5090819;56;1141047;-84
2024/04/04 09:41:13;;;;;;;6.13;4.60;;;;;;;12.23;100.00;100034.45;5061691;57;1140637;-82
2024/04/04 09:46:19;;;;;;;19.43;9.20;;;;;;;12.42;100.00;100032.27;5042060;56;1140600;-82
2024/04/04 09:51:27;;;;;;;61.37;25.37;;;;;;;12.59;100.00;100038.16;5042671;56;1142793;-86
2024/04/04 09:56:34;;;;;;;31.40;14.97;;;;;;;12.69;100.00;100042.45;4965123;57;1145072;-83
2024/04/04 10:01:39;;;;;;;138.55;63.55;;;;;;;12.65;100.00;100049.54;5123547;56;1145136;-80
2024/04/04 10:06:45;;;;;;;43.40;20.97;;;;;;;12.57;100.00;100054.22;5044299;56;1147340;-83
2024/04/04 10:11:53;;;;;;;22.38;12.86;;;;;;;12.61;100.00;100064.06;5056681;56;1145158;-84
2024/04/04 10:17:02;;;;;;;43.73;11.40;;;;;;;12.60;100.00;100064.55;5101423;56;1145021;-83
2024/04/04 10:22:19;;;;;;;15.53;7.12;;;;;;;12.65;100.00;100062.80;5041475;56;1144817;-81
2024/04/04 10:27:25;;;;;;;27.20;6.55;;;;;;;12.83;100.00;100067.69;5076723;56;1142667;-84
2024/04/04 10:32:31;;;;;;;22.20;8.00;;;;;;;13.05;100.00;100062.52;5113942;56;1143368;-84
2024/04/04 10:37:36;;;;;;;14.27;6.03;;;;;;;13.23;100.00;100067.44;5085919;56;1143038;-84
2024/04/04 10:42:42;;;;;;;7.27;3.60;;;;;;;13.33;100.00;100065.56;5071321;56;1143032;-82
2024/04/04 10:47:48;;;;;;;8.63;2.93;;;;;;;13.41;100.00;100062.67;5081690;56;1141063;-81
2024/04/04 10:52:58;;;;;;;7.10;3.67;;;;;;;13.52;100.00;100058.48;4984333;57;1140996;-81
2024/04/04 10:58:09;;;;;;;9.68;3.60;;;;;;;13.69;100.00;100043.06;4977989;57;1140870;-82
2024/04/04 11:03:15;;;;;;;12.23;4.83;;;;;;;14.04;100.00;100048.89;5124521;56;1140613;-80
2024/04/04 11:08:23;;;;;;;5.10;4.00;;;;;;;14.09;100.00;100044.77;5068537;56;1142951;-79
2024/04/04 11:13:29;;;;;;;8.50;2.90;;;;;;;14.12;100.00;100030.83;5061235;56;1140803;-82
2024/04/04 11:18:42;;;;;;;5.13;2.33;;;;;;;14.14;100.00;100040.82;5079853;56;1140936;-85
2024/04/04 11:23:43;;;;;;;7.20;3.80;;;;;;;14.29;100.00;100033.96;5080156;56;1140901;-80
2024/04/04 11:28:49;;;;;;;10.10;3.23;;;;;;;14.29;100.00;100033.96;5083915;56;1140616;-82
2024/04/04 11:33:55;;;;;;;5.67;2.60;;;;;;;14.52;100.00;100044.95;5101950;56;1142938;-79
2024/04/04 11:39:02;;;;;;;3.17;2.10;;;;;;;14.62;100.00;100039.89;5106378;56;1140972;-82
2024/04/04 11:44:08;;;;;;;7.87;2.98;;;;;;;14.89;100.00;100041.54;5077841;56;1141150;-81
2024/04/04 11:49:16;;;;;;;5.53;1.97;;;;;;;15.17;100.00;100054.66;5096546;56;1141235;-82
2024/04/04 11:54:22;;;;;;;3.43;1.77;;;;;;;15.29;100.00;100048.03;5117680;56;1141286;-83
2024/04/04 11:59:28;;;;;;;4.87;2.40;;;;;;;15.26;100.00;100042.55;5114294;56;1140672;-81
2024/04/04 12:04:43;;;;;;;9.30;4.07;;;;;;;15.45;100.00;100039.60;5081330;56;1140851;-84
2024/04/04 12:09:48;;;;;;;7.33;3.37;;;;;;;15.66;100.00;100033.03;5059923;56;1140754;-82
2024/04/04 12:14:54;;;;;;;16.07;9.43;;;;;;;15.93;100.00;100026.07;5061099;55;1141769;-83
2024/04/04 12:20:00;;;;;;;5.28;3.62;;;;;;;16.03;100.00;100024.10;5140107;56;1143117;-80
2024/04/04 12:25:06;;;;;;;4.53;2.30;;;;;;;16.24;100.00;100004.91;5103069;56;1140888;-80
2024/04/04 12:30:13;;;;;;;11.97;5.37;;;;;;;16.14;100.00;99990.41;5042733;56;1140925;-83
2024/04/04 12:35:19;;;;;;;4.47;2.13;;;;;;;16.24;100.00;100008.07;5091832;56;1140739;-84
2024/04/04 12:40:25;;;;;;;2.80;1.10;;;;;;;16.09;100.00;100000.73;4952607;58;1140896;-83
2024/04/04 12:45:30;;;;;;;4.17;1.93;;;;;;;15.82;100.00;99999.73;5065112;56;1140991;-84
2024/04/04 12:50:36;;;;;;;7.87;3.50;;;;;;;15.89;100.00;99978.59;5061958;56;1138654;-84
2024/04/04 12:55:43;;;;;;;3.67;2.47;;;;;;;16.02;100.00;99985.58;5088445;56;1138916;-81
2024/04/04 13:00:58;;;;;;;4.03;2.00;;;;;;;16.28;100.00;99971.55;5089174;56;1138718;-81
2024/04/04 13:05:57;;;;;;;2.30;1.30;;;;;;;16.33;100.00;99960.38;5113237;56;1138612;-81
2024/04/04 13:11:03;;;;;;;2.62;1.25;;;;;;;16.29;100.00;99964.38;5072908;56;1138836;-82
2024/04/04 13:16:08;;;;;;;2.58;1.98;;;;;;;16.26;100.00;99976.22;5075598;56;1138707;-80
2024/04/04 13:21:14;;;;;;;5.90;2.47;;;;;;;16.18;100.00;99969.57;5067066;56;1138644;-80
2024/04/04 13:26:20;;;;;;;5.53;3.00;;;;;;;16.12;100.00;99961.73;5052975;57;1138481;-79
2024/04/04 13:31:26;;;;;;;4.40;2.83;;;;;;;16.13;100.00;99962.56;5054334;56;1138750;-82
2024/04/04 13:36:32;;;;;;;3.40;2.30;;;;;;;16.13;100.00;99948.72;5098347;56;1139102;-81
2024/04/04 13:41:37;;;;;;;3.93;1.30;;;;;;;16.36;100.00;99939.50;5063122;56;1138702;-81
2024/04/04 13:46:43;;;;;;;1.70;1.60;;;;;;;16.56;100.00;99940.45;5055968;56;1138888;-80
2024/04/04 13:51:49;;;;;;;2.52;1.70;;;;;;;16.42;100.00;99928.15;5098831;56;1139188;-80
2024/04/04 13:56:56;;;;;;;1.34;1.30;;;;;;;16.42;100.00;99928.15;5137646;56;1138743;-80
2024/04/04 14:02:15;;;;;;;1.95;1.70;;;;;;;16.37;100.00;99924.31;5090936;56;1138618;-79
2024/04/04 14:07:21;;;;;;;6.23;2.50;;;;;;;16.28;100.00;99921.34;5105319;56;1138623;-80
2024/04/04 14:12:28;;;;;;;8.47;2.30;;;;;;;16.22;100.00;99924.69;5090826;56;1138918;-80
2024/04/04 14:17:33;;;;;;;1.63;1.43;;;;;;;16.22;100.00;99918.84;5096905;56;1138745;-82
2024/04/04 14:22:39;;;;;;;0.97;0.80;;;;;;;16.21;100.00;99918.52;5107951;56;1138776;-80
2024/04/04 14:27:45;;;;;;;1.57;1.10;;;;;;;16.10;100.00;99918.38;5043917;57;1138663;-80
2024/04/04 14:32:50;;;;;;;3.47;1.40;;;;;;;15.96;100.00;99915.56;5062113;56;1138876;-80
2024/04/04 14:37:56;;;;;;;2.23;1.63;;;;;;;15.87;100.00;99917.91;5111336;56;1138960;-81
2024/04/04 14:43:02;;;;;;;1.95;1.25;;;;;;;15.75;100.00;99907.56;5126376;56;1138541;-83
2024/04/04 14:48:08;;;;;;;3.52;1.70;;;;;;;15.70;100.00;99901.09;5145542;56;1138814;-80
2024/04/04 14:53:14;;;;;;;1.40;1.32;;;;;;;15.66;100.00;99899.24;5123993;56;1138647;-81
2024/04/04 14:58:19;;;;;;;3.80;1.40;;;;;;;15.61;100.00;99900.73;5077232;56;1138865;-81
2024/04/04 15:03:26;;;;;;;4.20;1.00;;;;;;;15.62;100.00;99897.06;5139640;56;1138630;-80
2024/04/04 15:08:32;;;;;;;7.27;1.40;;;;;;;15.57;100.00;99898.09;5102966;56;1138721;-80
2024/04/04 15:13:38;;;;;;;11.07;8.40;;;;;;;15.57;100.00;99892.75;5120045;56;1138506;-79
2024/04/04 15:18:44;;;;;;;29.30;14.40;;;;;;;15.49;100.00;99884.20;5080551;56;1141311;-81
2024/04/04 15:23:49;;;;;;;28.07;15.07;;;;;;;15.41;100.00;99886.39;5062021;57;1143221;-80
2024/04/04 15:28:56;;;;;;;19.80;11.17;;;;;;;15.36;100.00;99882.54;5049459;57;1143162;-80
2024/04/04 15:34:02;;;;;;;18.70;7.42;;;;;;;15.28;100.00;99879.85;5101664;56;1142874;-82
2024/04/04 15:39:08;;;;;;;36.45;14.35;;;;;;;15.20;100.00;99874.03;5138707;56;1140630;-80
2024/04/04 15:44:14;;;;;;;41.28;23.45;;;;;;;15.12;100.00;99866.04;5052613;57;1142523;-81
2024/04/04 15:49:20;;;;;;;12.13;5.00;;;;;;;15.09;100.00;99857.04;5053099;57;1142744;-82
2024/04/04 15:54:25;;;;;;;8.30;4.60;;;;;;;15.06;100.00;99850.20;5120727;56;1140672;-81
2024/04/04 15:59:31;;;;;;;7.40;4.83;;;;;;;15.00;100.00;99858.00;5134000;56;1138821;-79
2024/04/04 16:04:37;;;;;;;31.13;17.53;;;;;;;14.93;100.00;99857.00;5137445;56;1138618;-82
2024/04/04 16:09:45;;;;;;;35.47;16.10;;;;;;;14.87;100.00;99854.98;5082320;56;1143024;-81
2024/04/04 16:14:50;;;;;;;26.33;13.80;;;;;;;14.80;100.00;99848.66;5070694;56;1142828;-81
2024/04/04 16:19:55;;;;;;;74.93;36.83;;;;;;;14.75;100.00;99851.30;5067620;56;1143543;-80
2024/04/04 16:25:03;;;;;;;5.00;4.40;;;;;;;14.65;100.00;99842.63;5054103;56;1142902;-79
2024/04/04 16:30:09;;;;;;;9.58;4.45;;;;;;;14.54;100.00;99840.73;5118596;56;1139288;-79
2024/04/04 16:35:15;;;;;;;15.40;9.70;;;;;;;14.43;100.00;99841.37;5130507;56;1138687;-80
2024/04/04 16:40:21;;;;;;;104.50;63.47;;;;;;;14.37;100.00;99841.96;5115022;55;1140617;-78
2024/04/04 16:45:26;;;;;;;63.07;29.53;;;;;;;14.33;100.00;99855.27;5077696;56;1144997;-81
2024/04/04 16:50:33;;;;;;;14.13;8.67;;;;;;;14.23;100.00;99853.20;5061270;56;1142915;-80
2024/04/04 16:55:39;;;;;;;26.40;13.00;;;;;;;14.12;100.00;99861.46;5106309;56;1140577;-83
2024/04/04 17:00:45;;;;;;;83.17;36.63;;;;;;;14.00;100.00;99860.07;5139339;56;1142650;-81
2024/04/04 17:05:51;;;;;;;18.30;9.53;;;;;;;13.92;100.00;99842.72;5154645;56;1142874;-79
2024/04/04 17:10:56;;;;;;;16.57;8.30;;;;;;;13.79;100.00;99843.64;5107037;56;1140963;-82
2024/04/04 17:16:05;;;;;;;14.57;9.10;;;;;;;13.66;100.00;99843.56;5084009;56;1140945;-80
2024/04/04 17:21:11;;;;;;;4.70;3.15;;;;;;;13.57;100.00;99845.83;5076805;57;1140979;-80
2024/04/04 17:26:17;;;;;;;24.47;15.03;;;;;;;13.56;100.00;99836.68;5057724;56;1138712;-80
2024/04/04 17:31:23;;;;;;;12.03;6.97;;;;;;;13.53;100.00;99831.17;5057726;56;1142884;-79
2024/04/04 17:36:28;;;;;;;85.43;23.60;;;;;;;13.47;100.00;99830.95;5077819;56;1140601;-80
2024/04/04 17:41:34;;;;;;;62.83;22.43;;;;;;;13.45;100.00;99828.94;5057904;56;1142831;-81
2024/04/04 17:46:40;;;;;;;55.60;19.67;;;;;;;13.38;100.00;99820.27;5073788;56;1143054;-79
2024/04/04 17:51:46;;;;;;;21.63;9.70;;;;;;;13.33;100.00;99807.94;5141733;56;1142943;-80
2024/04/04 17:56:52;;;;;;;10.27;5.83;;;;;;;13.26;100.00;99806.91;5162740;56;1140771;-80
2024/04/04 18:01:59;;;;;;;34.47;12.93;;;;;;;13.19;100.00;99797.86;5115194;56;1140877;-79
2024/04/04 18:07:08;;;;;;;192.77;74.47;;;;;;;13.18;100.00;99794.87;5137950;56;1143001;-83
2024/04/04 18:12:12;;;;;;;40.10;15.73;;;;;;;13.16;100.00;99798.17;5157729;56;1145116;-80
2024/04/04 18:17:19;;;;;;;30.27;12.90;;;;;;;13.17;100.00;99797.67;5136944;56;1143130;-80
2024/04/04 18:22:26;;;;;;;17.13;8.93;;;;;;;13.12;100.00;99803.44;5100500;56;1142876;-79
2024/04/04 18:27:31;;;;;;;8.43;5.10;;;;;;;12.95;100.00;99813.06;5110375;56;1140895;-81
2024/04/04 18:32:39;;;;;;;12.43;5.50;;;;;;;12.78;100.00;99803.27;5136387;56;1138738;-79
2024/04/04 18:37:44;;;;;;;8.83;4.23;;;;;;;12.70;100.00;99804.50;5056538;56;1140900;-80
2024/04/04 18:42:52;;;;;;;8.98;4.95;;;;;;;12.63;100.00;99809.59;5048776;56;1138713;-79
2024/04/04 18:47:58;;;;;;;11.07;6.23;;;;;;;12.54;100.00;99810.95;5061937;57;1139134;-79
2024/04/04 18:53:06;;;;;;;5.22;4.08;;;;;;;12.50;100.00;99817.56;5041813;57;1141030;-81
2024/04/04 18:58:12;;;;;;;8.98;4.97;;;;;;;12.46;100.00;99816.17;5112425;56;1138770;-80
2024/04/04 19:03:18;;;;;;;7.75;5.15;;;;;;;12.46;100.00;99824.97;5138600;56;1138801;-81
2024/04/04 19:08:24;;;;;;;12.07;5.80;;;;;;;12.45;100.00;99821.14;4915608;58;1138604;-81
2024/04/04 19:13:29;;;;;;;10.60;4.90;;;;;;;12.45;100.00;99824.63;5094642;56;1140417;-80
2024/04/04 19:18:35;;;;;;;7.83;5.27;;;;;;;12.45;100.00;99821.97;5146228;56;1140801;-81
2024/04/04 19:23:42;;;;;;;15.13;6.33;;;;;;;12.47;100.00;99825.80;5126602;56;1138630;-79
2024/04/04 19:28:50;;;;;;;12.37;6.73;;;;;;;12.47;100.00;99822.66;5126939;56;1140925;-80
2024/04/04 19:33:56;;;;;;;6.80;4.43;;;;;;;12.46;100.00;99836.91;5147834;56;1140876;-79
2024/04/04 19:39:05;;;;;;;24.00;7.57;;;;;;;12.42;100.00;99838.17;5121969;56;1138643;-80
2024/04/04 19:44:09;;;;;;;8.00;4.10;;;;;;;12.38;100.00;99847.39;5086941;56;1140548;-79
2024/04/04 19:49:15;;;;;;;6.40;4.43;;;;;;;12.35;100.00;99849.05;5163328;56;1138846;-81
2024/04/04 19:54:21;;;;;;;5.13;3.40;;;;;;;12.36;100.00;99846.73;5142575;56;1139377;-79
2024/04/04 19:59:28;;;;;;;11.57;3.90;;;;;;;12.36;100.00;99847.22;5137800;56;1138879;-81
2024/04/04 20:04:34;;;;;;;8.03;4.27;;;;;;;12.33;100.00;99846.53;5163307;56;1140856;-79
2024/04/04 20:09:39;;;;;;;7.33;3.70;;;;;;;12.33;100.00;99851.00;5143297;56;1139015;-80
2024/04/04 20:14:45;;;;;;;4.50;2.97;;;;;;;12.36;100.00;99861.81;5107597;56;1138996;-81
2024/04/04 20:19:51;;;;;;;10.67;4.13;;;;;;;12.38;100.00;99859.33;5058589;56;1138683;-80
2024/04/04 20:24:57;;;;;;;7.73;3.70;;;;;;;12.40;100.00;99871.12;5119359;56;1140594;-80
2024/04/04 20:30:04;;;;;;;4.63;2.77;;;;;;;12.40;100.00;99882.56;5143727;56;1138953;-81
2024/04/04 20:35:11;;;;;;;7.03;3.02;;;;;;;12.38;100.00;99867.28;5143650;56;1138973;-79
2024/04/04 20:40:24;;;;;;;6.30;3.08;;;;;;;12.38;100.00;99861.98;5128470;56;1138927;-81
2024/04/04 20:45:24;;;;;;;6.80;2.90;;;;;;;12.37;100.00;99862.99;5057147;56;1138957;-78
2024/04/04 20:50:30;;;;;;;3.07;2.27;;;;;;;12.37;100.00;99874.92;5098995;56;1138773;-81
2024/04/04 20:55:38;;;;;;;55.50;19.03;;;;;;;12.35;100.00;99876.88;5163903;56;1138411;-81
2024/04/04 21:00:43;;;;;;;173.73;58.63;;;;;;;12.34;100.00;99883.16;5131485;56;1142808;-79
2024/04/04 21:05:49;;;;;;;61.58;15.72;;;;;;;12.34;100.00;99877.86;5143081;56;1145228;-80
2024/04/04 21:10:55;;;;;;;106.37;23.10;;;;;;;12.35;100.00;99889.30;5128727;56;1143050;-78
2024/04/04 21:16:00;;;;;;;27.70;8.03;;;;;;;12.36;100.00;99905.56;5057472;56;1145065;-80
2024/04/04 21:21:07;;;;;;;7.77;2.87;;;;;;;12.35;100.00;99909.19;5065151;56;1140792;-80
2024/04/04 21:26:13;;;;;;;3.33;1.87;;;;;;;12.33;100.00;99907.52;5163785;56;1138586;-79
2024/04/04 21:31:18;;;;;;;4.93;1.53;;;;;;;12.32;100.00;99912.97;5143525;56;1138962;-77
2024/04/04 21:36:24;;;;;;;5.93;2.50;;;;;;;12.31;100.00;99921.41;5143417;56;1138892;-80
2024/04/04 21:41:30;;;;;;;4.80;1.90;;;;;;;12.29;100.00;99922.04;5150937;56;1138734;-80
2024/04/04 21:46:35;;;;;;;6.30;2.50;;;;;;;12.23;100.00;99922.60;5126903;56;1138990;-79
2024/04/04 21:51:41;;;;;;;4.67;2.00;;;;;;;12.19;100.00;99925.22;5127395;56;1138752;-80
2024/04/04 21:56:47;;;;;;;4.40;1.17;;;;;;;12.15;100.00;99932.27;5127407;56;1138950;-78
2024/04/04 22:01:53;;;;;;;4.47;1.13;;;;;;;12.11;100.00;99936.17;4979946;58;1138732;-80
2024/04/04 22:06:59;;;;;;;1.00;0.83;;;;;;;12.08;100.00;99945.24;5096511;56;1139124;-82
2024/04/04 22:12:05;;;;;;;2.45;1.17;;;;;;;12.05;100.00;99948.70;5023122;57;1138776;-79
2024/04/04 22:17:11;;;;;;;3.35;1.10;;;;;;;11.99;100.00;99952.73;5062757;57;1138799;-81
2024/04/04 22:22:17;;;;;;;1.98;0.90;;;;;;;11.91;100.00;99954.78;5042679;57;1138811;-79
2024/04/04 22:27:22;;;;;;;1.62;0.80;;;;;;;11.85;100.00;99961.13;5040217;57;1138972;-79
2024/04/04 22:32:28;;;;;;;1.23;0.90;;;;;;;11.76;100.00;99969.44;5062409;57;1138720;-80
2024/04/04 22:37:35;;;;;;;2.57;0.90;;;;;;;11.56;100.00;99978.31;5042666;57;1138865;-78
2024/04/04 22:42:41;;;;;;;2.00;0.80;;;;;;;11.56;100.00;99978.31;5111009;56;1138732;-80
2024/04/04 22:47:47;;;;;;;15.10;3.90;;;;;;;11.56;100.00;99987.09;5138524;56;1138698;-80
2024/04/04 22:52:52;;;;;;;12.10;3.30;;;;;;;11.54;100.00;99995.66;5157912;56;1140762;-79
2024/04/04 22:57:58;;;;;;;8.07;2.43;;;;;;;11.54;100.00;99992.17;5137830;56;1140971;-80